Time;durP1;ratioP1;P1;durP2;ratioP2;P2;SDS_P1;SDS_P2;PMS_P1;PMS_P2;Temp;Humidity;BMP_temperature;BMP_pressure;BME280_temperature;BME280_humidity;BME280_pressure;Samples;Min_cycle;Max_cycle;Signal;HPM_P1;HPM_P2
2023/07/20 00:00:54;;;;;;;2.03;1.00;;;;;;;17.88;66.33;101365.25;7397790;19;20047;-58
2023/07/20 00:03:24;;;;;;;1.67;1.00;;;;;;;17.92;66.31;101365.78;7397623;19;20671;-57
2023/07/20 00:05:52;;;;;;;1.70;1.02;;;;;;;17.91;66.16;101362.28;7397532;19;20018;-56
2023/07/20 00:08:19;;;;;;;2.28;1.00;;;;;;;17.83;66.34;101362.16;7394155;19;20010;-57
2023/07/20 00:10:47;;;;;;;3.35;1.00;;;;;;;17.90;66.98;101363.28;7399029;19;20043;-58
2023/07/20 00:13:15;;;;;;;2.67;1.10;;;;;;;17.97;66.29;101358.16;7398438;19;20495;-58
2023/07/20 00:15:43;;;;;;;2.90;1.10;;;;;;;17.94;66.21;101353.94;7397571;19;20480;-56
2023/07/20 00:18:10;;;;;;;2.70;1.15;;;;;;;17.92;66.33;101355.91;7394421;19;20023;-56
2023/07/20 00:20:37;;;;;;;2.28;1.30;;;;;;;17.89;66.68;101356.19;7398277;19;20078;-57
2023/07/20 00:23:05;;;;;;;4.15;1.10;;;;;;;17.92;66.44;101353.22;7396426;19;20049;-60
2023/07/20 00:25:33;;;;;;;2.17;1.42;;;;;;;17.94;66.36;101353.94;7397780;19;20014;-57
2023/07/20 00:28:01;;;;;;;2.25;1.10;;;;;;;18.01;66.03;101352.38;7394447;19;20007;-60
2023/07/20 00:30:29;;;;;;;2.33;1.25;;;;;;;17.96;66.52;101348.44;7397957;19;20021;-57
2023/07/20 00:32:56;;;;;;;3.42;1.40;;;;;;;17.93;66.27;101360.31;7398761;19;20017;-57
2023/07/20 00:35:23;;;;;;;2.70;1.60;;;;;;;17.81;66.82;101357.94;7397379;19;20023;-56
2023/07/20 00:37:51;;;;;;;5.55;1.70;;;;;;;17.87;66.86;101362.72;7396131;19;20143;-57
2023/07/20 00:40:18;;;;;;;5.47;2.10;;;;;;;17.77;66.95;101365.41;7397755;19;20505;-57
2023/07/20 00:42:45;;;;;;;5.57;2.00;;;;;;;17.64;67.88;101356.81;7397298;19;20011;-57
2023/07/20 00:45:12;;;;;;;4.65;2.00;;;;;;;17.64;68.07;101371.06;7393344;19;20055;-59
2023/07/20 00:47:40;;;;;;;4.97;1.75;;;;;;;17.55;69.04;101358.50;7392735;19;20520;-59
2023/07/20 00:50:09;;;;;;;3.78;2.15;;;;;;;17.53;69.44;101363.19;7394952;19;20014;-59
2023/07/20 00:52:39;;;;;;;3.30;1.92;;;;;;;17.54;69.66;101368.38;7393576;19;20110;-60
2023/07/20 00:55:07;;;;;;;4.97;2.00;;;;;;;17.45;70.10;101357.69;7393245;19;20363;-60
2023/07/20 00:57:35;;;;;;;3.97;2.03;;;;;;;17.43;70.58;101357.81;7392701;19;20492;-60
2023/07/20 01:00:02;;;;;;;3.50;1.90;;;;;;;17.40;71.18;101359.94;7395878;19;20362;-60
2023/07/20 01:02:30;;;;;;;3.10;1.90;;;;;;;17.35;71.59;101354.16;7395392;19;20018;-58
2023/07/20 01:04:57;;;;;;;3.58;1.98;;;;;;;17.37;72.05;101360.25;7395338;19;20021;-59
2023/07/20 01:07:32;;;;;;;4.10;2.35;;;;;;;17.35;72.17;101356.84;7394045;19;20014;-59
2023/07/20 01:10:10;;;;;;;4.63;2.00;;;;;;;17.36;72.09;101359.41;7395456;19;20026;-59
2023/07/20 01:12:43;;;;;;;6.15;2.15;;;;;;;17.34;72.42;101355.16;7393143;19;20047;-59
2023/07/20 01:15:10;;;;;;;9.48;2.65;;;;;;;17.32;72.97;101355.28;7394966;19;20014;-59
2023/07/20 01:17:38;;;;;;;7.22;2.35;;;;;;;17.41;72.56;101357.13;7393585;19;20021;-58
2023/07/20 01:20:08;;;;;;;7.85;2.08;;;;;;;17.35;72.97;101349.66;7395309;19;20019;-58
2023/07/20 01:22:55;;;;;;;3.67;1.40;;;;;;;17.43;72.74;101352.47;7395740;19;20025;-59
2023/07/20 01:25:44;;;;;;;3.85;1.35;;;;;;;17.40;73.06;101359.94;7393556;19;20022;-59
2023/07/20 01:28:21;;;;;;;3.13;1.48;;;;;;;17.35;73.08;101357.69;7393222;19;20014;-59
2023/07/20 01:31:22;;;;;;;4.10;1.40;;;;;;;17.36;73.46;101363.88;7394500;19;20014;-59
2023/07/20 01:33:53;;;;;;;2.72;1.33;;;;;;;17.22;73.64;101371.38;7397929;19;20062;-59
2023/07/20 01:36:24;;;;;;;3.35;1.67;;;;;;;17.09;74.20;101365.44;7393970;19;20030;-59
2023/07/20 01:38:52;;;;;;;2.88;1.30;;;;;;;17.24;73.88;101366.72;7393009;19;20022;-59
2023/07/20 01:41:20;;;;;;;2.47;1.65;;;;;;;17.23;73.85;101362.34;7394265;19;20025;-59
2023/07/20 01:43:47;;;;;;;2.92;1.40;;;;;;;17.21;73.91;101356.31;7393748;19;20019;-59
2023/07/20 01:46:15;;;;;;;3.38;1.50;;;;;;;17.21;73.74;101366.19;7391716;19;20015;-59
2023/07/20 01:48:43;;;;;;;4.32;2.20;;;;;;;17.14;73.56;101359.69;7393129;19;20014;-59
2023/07/20 01:51:11;;;;;;;4.72;2.10;;;;;;;17.15;73.62;101356.03;7394255;19;20037;-61
2023/07/20 01:53:39;;;;;;;4.28;1.65;;;;;;;17.19;73.52;101346.72;7393876;19;20224;-60
2023/07/20 01:56:06;;;;;;;3.38;1.45;;;;;;;17.11;73.16;101357.28;7393466;19;20018;-61
2023/07/20 01:58:34;;;;;;;1.70;1.23;;;;;;;17.15;73.17;101351.50;7394772;19;20023;-61
2023/07/20 02:01:01;;;;;;;2.92;1.30;;;;;;;17.09;74.03;101353.91;7393806;19;20142;-60
2023/07/20 02:03:29;;;;;;;2.10;1.48;;;;;;;17.01;74.10;101354.59;7393566;19;20014;-60
2023/07/20 02:05:59;;;;;;;1.48;1.00;;;;;;;17.07;74.18;101358.56;7393132;19;20035;-61
2023/07/20 02:08:26;;;;;;;2.05;1.20;;;;;;;17.09;74.28;101360.09;7394140;19;20014;-61
2023/07/20 02:10:53;;;;;;;1.17;1.08;;;;;;;17.04;74.66;101365.88;7392517;19;20019;-60
2023/07/20 02:13:21;;;;;;;1.60;1.00;;;;;;;17.02;74.83;101361.66;7393805;19;20039;-63
2023/07/20 02:15:49;;;;;;;2.42;0.90;;;;;;;16.97;74.26;101359.38;7393218;19;20551;-62
2023/07/20 02:18:16;;;;;;;1.40;0.70;;;;;;;16.90;73.91;101346.69;7391463;19;20043;-63
2023/07/20 02:20:44;;;;;;;1.92;0.57;;;;;;;16.85;73.84;101339.09;7392262;19;20047;-63
2023/07/20 02:23:11;;;;;;;1.65;0.63;;;;;;;16.74;73.89;101336.56;7391576;19;20038;-61
2023/07/20 02:25:40;;;;;;;1.45;0.60;;;;;;;16.86;73.58;101335.44;7393544;19;20026;-62
2023/07/20 02:28:09;;;;;;;1.25;0.60;;;;;;;16.89;73.13;101339.66;7391393;19;20360;-62
2023/07/20 02:30:39;;;;;;;1.05;0.52;;;;;;;16.81;73.22;101343.88;7393136;19;20010;-62
2023/07/20 02:33:07;;;;;;;1.90;0.63;;;;;;;16.83;72.62;101346.44;7394308;19;20030;-60
2023/07/20 02:35:35;;;;;;;2.20;0.77;;;;;;;16.88;72.14;101352.19;7393020;19;20026;-60
2023/07/20 02:38:03;;;;;;;0.82;0.68;;;;;;;16.88;72.14;101346.00;7391236;19;20015;-60
2023/07/20 02:40:30;;;;;;;0.80;0.50;;;;;;;16.80;72.77;101355.56;7393379;19;20022;-60
2023/07/20 02:42:57;;;;;;;1.48;0.85;;;;;;;16.83;72.77;101357.13;7392687;19;20082;-60
2023/07/20 02:45:25;;;;;;;0.98;0.70;;;;;;;16.86;72.93;101358.66;7392046;19;20018;-60
2023/07/20 02:47:52;;;;;;;1.00;0.63;;;;;;;16.87;73.03;101361.22;7390995;19;20026;-59
2023/07/20 02:50:19;;;;;;;2.17;1.45;;;;;;;16.85;73.45;101347.13;7392233;19;20539;-59
2023/07/20 02:52:46;;;;;;;3.25;1.58;;;;;;;16.86;73.62;101359.50;7392192;19;20471;-59
2023/07/20 02:55:14;;;;;;;4.65;1.77;;;;;;;16.89;74.37;101356.56;7391518;19;20022;-60
2023/07/20 02:57:42;;;;;;;3.03;1.80;;;;;;;16.89;74.62;101353.03;7390801;19;20035;-59
2023/07/20 03:00:10;;;;;;;4.80;2.00;;;;;;;16.86;75.12;101366.69;7391525;19;20030;-60
2023/07/20 03:02:38;;;;;;;4.00;1.77;;;;;;;16.93;74.88;101357.97;7390244;19;20023;-60
2023/07/20 03:05:07;;;;;;;3.70;1.88;;;;;;;17.03;75.15;101353.47;7388162;19;20018;-60
2023/07/20 03:07:34;;;;;;;4.93;2.22;;;;;;;17.09;74.79;101354.72;7388784;19;20108;-60
2023/07/20 03:10:02;;;;;;;5.63;2.08;;;;;;;17.16;74.51;101355.03;7390089;19;20018;-60
2023/07/20 03:12:30;;;;;;;4.32;2.35;;;;;;;17.15;74.60;101361.38;7390352;19;20010;-60
2023/07/20 03:14:57;;;;;;;4.72;2.20;;;;;;;17.11;74.84;101357.28;7391342;19;20015;-60
2023/07/20 03:17:24;;;;;;;6.32;2.58;;;;;;;17.09;74.98;101361.91;7390110;19;20014;-60
2023/07/20 03:19:52;;;;;;;3.72;2.50;;;;;;;17.12;74.87;101358.97;7391711;19;20025;-60
2023/07/20 03:22:21;;;;;;;4.90;2.35;;;;;;;17.15;74.48;101361.38;7391278;19;20113;-59
2023/07/20 03:24:48;;;;;;;5.30;2.65;;;;;;;17.04;74.42;101355.16;7389659;19;20019;-60
2023/07/20 03:27:15;;;;;;;5.35;2.38;;;;;;;17.06;74.94;101357.72;7388088;19;20014;-60
2023/07/20 03:29:44;;;;;;;4.00;2.30;;;;;;;16.96;74.86;101360.38;7391525;19;20052;-60
2023/07/20 03:32:11;;;;;;;3.88;2.20;;;;;;;16.98;75.16;101354.88;7391300;19;20010;-61
2023/07/20 03:34:38;;;;;;;5.28;2.20;;;;;;;17.00;75.30;101363.63;7390771;19;20043;-61
2023/07/20 03:37:06;;;;;;;3.85;2.25;;;;;;;17.01;75.67;101370.66;7390306;19;20135;-60
2023/07/20 03:39:33;;;;;;;4.38;2.10;;;;;;;16.99;75.28;101362.78;7391179;19;20035;-60
2023/07/20 03:42:01;;;;;;;6.85;2.42;;;;;;;17.02;75.31;101367.84;7390177;19;20014;-60
2023/07/20 03:44:29;;;;;;;4.30;2.20;;;;;;;17.06;74.91;101379.13;7389462;19;20031;-60
2023/07/20 03:46:56;;;;;;;5.18;2.28;;;;;;;17.01;74.76;101378.69;7389704;19;20034;-60
2023/07/20 03:49:23;;;;;;;5.70;2.78;;;;;;;17.00;75.12;101374.31;7390969;19;20019;-61
2023/07/20 03:51:51;;;;;;;5.90;3.05;;;;;;;17.07;74.68;101372.78;7390664;19;20495;-60
2023/07/20 03:54:18;;;;;;;6.90;3.38;;;;;;;17.02;75.22;101375.88;7390333;19;20112;-60
2023/07/20 03:56:46;;;;;;;7.63;3.15;;;;;;;17.09;75.31;101373.47;7389404;19;20022;-60
2023/07/20 03:59:14;;;;;;;8.20;3.63;;;;;;;17.11;75.05;101378.69;7390528;19;20025;-60
2023/07/20 04:01:41;;;;;;;7.22;3.60;;;;;;;17.11;75.06;101376.88;7390807;19;20014;-60
2023/07/20 04:04:08;;;;;;;8.30;3.28;;;;;;;17.19;74.90;101384.19;7389200;19;20023;-60
2023/07/20 04:06:36;;;;;;;7.20;3.10;;;;;;;17.12;74.73;101383.91;7388763;19;20018;-60
2023/07/20 04:09:04;;;;;;;6.03;3.00;;;;;;;17.19;74.47;101387.72;7388874;19;20134;-61
2023/07/20 04:11:32;;;;;;;5.07;2.80;;;;;;;17.17;74.29;101384.34;7388412;19;20021;-62
2023/07/20 04:13:59;;;;;;;5.40;2.78;;;;;;;17.20;74.10;101384.03;7390282;19;20033;-61
2023/07/20 04:16:27;;;;;;;5.15;2.38;;;;;;;17.19;73.85;101385.03;7388330;19;20015;-60
2023/07/20 04:18:56;;;;;;;5.35;2.65;;;;;;;17.17;73.85;101388.81;7389806;19;20011;-61
2023/07/20 04:21:25;;;;;;;4.78;2.40;;;;;;;17.12;74.05;101383.91;7389823;19;20021;-59
2023/07/20 04:23:53;;;;;;;5.97;2.42;;;;;;;17.11;73.98;101389.41;7387081;19;20495;-60
2023/07/20 04:26:20;;;;;;;5.18;2.30;;;;;;;16.99;74.10;101391.38;7388281;19;20022;-60
2023/07/20 04:28:48;;;;;;;5.68;2.40;;;;;;;16.98;74.22;101397.69;7389811;19;20047;-60
2023/07/20 04:31:16;;;;;;;5.47;2.30;;;;;;;17.02;73.79;101389.25;7389941;19;20036;-60
2023/07/20 04:33:43;;;;;;;5.13;2.15;;;;;;;17.08;73.47;101398.56;7391252;19;20093;-59
2023/07/20 04:36:10;;;;;;;4.63;2.30;;;;;;;17.06;73.77;101389.84;7388698;19;20022;-60
2023/07/20 04:38:38;;;;;;;6.72;2.90;;;;;;;17.05;73.74;101388.97;7389240;19;20583;-60
2023/07/20 04:41:05;;;;;;;5.70;2.50;;;;;;;17.09;73.50;101397.56;7388934;19;20360;-59
2023/07/20 04:43:32;;;;;;;5.45;2.90;;;;;;;17.11;73.37;101398.28;7388538;19;20015;-59
2023/07/20 04:45:59;;;;;;;6.88;3.20;;;;;;;17.10;73.59;101399.28;7391626;19;20019;-60
2023/07/20 04:48:27;;;;;;;4.55;2.85;;;;;;;17.14;73.47;101397.16;7396542;19;20022;-60
2023/07/20 04:50:55;;;;;;;6.53;2.70;;;;;;;17.03;73.47;101385.59;7396019;19;20593;-60
2023/07/20 04:53:23;;;;;;;7.28;3.03;;;;;;;17.07;73.60;101404.91;7396321;19;20021;-59
2023/07/20 04:55:51;;;;;;;13.15;3.47;;;;;;;17.00;73.88;101396.56;7395748;19;20015;-61
2023/07/20 04:58:20;;;;;;;6.68;2.88;;;;;;;17.07;73.84;101407.56;7391792;19;20014;-62
2023/07/20 05:00:48;;;;;;;6.00;3.03;;;;;;;17.08;73.52;101403.91;7396062;19;20039;-59
2023/07/20 05:03:16;;;;;;;6.10;2.80;;;;;;;17.09;73.49;101405.59;7396159;19;20023;-59
2023/07/20 05:05:43;;;;;;;7.28;3.25;;;;;;;17.12;73.23;101409.81;7395372;19;20022;-59
2023/07/20 05:08:14;;;;;;;6.45;3.00;;;;;;;17.08;73.46;101409.25;7393802;19;20026;-59
2023/07/20 05:10:41;;;;;;;7.28;3.13;;;;;;;17.02;73.69;101405.31;7395922;19;20057;-60
2023/07/20 05:13:08;;;;;;;7.82;2.90;;;;;;;17.08;73.30;101401.22;7395704;19;20017;-60
2023/07/20 05:15:36;;;;;;;6.88;3.58;;;;;;;17.15;73.03;101398.84;7394350;19;20022;-60
2023/07/20 05:18:03;;;;;;;8.10;3.97;;;;;;;17.16;72.80;101400.53;7393524;19;20575;-61
2023/07/20 05:20:31;;;;;;;13.55;4.97;;;;;;;17.10;73.14;101406.47;7395513;19;20022;-60
2023/07/20 05:22:59;;;;;;;10.85;5.53;;;;;;;17.11;73.05;101408.97;7396272;19;20015;-60
2023/07/20 05:25:27;;;;;;;13.27;5.82;;;;;;;17.12;72.80;101408.00;7392310;19;20094;-60
2023/07/20 05:27:57;;;;;;;10.73;4.90;;;;;;;17.10;72.61;101411.81;7393137;19;20025;-60
2023/07/20 05:30:24;;;;;;;10.63;4.90;;;;;;;17.17;72.30;101421.81;7394753;19;20526;-60
2023/07/20 05:32:54;;;;;;;10.77;4.35;;;;;;;17.21;72.43;101422.38;7395743;19;20024;-60
2023/07/20 05:35:22;;;;;;;8.75;3.50;;;;;;;17.23;72.19;101423.91;7394792;19;20026;-60
2023/07/20 05:37:49;;;;;;;10.93;3.40;;;;;;;17.16;72.32;101414.75;7393257;19;20014;-60
2023/07/20 05:40:18;;;;;;;9.00;3.03;;;;;;;17.12;71.78;101421.38;7392866;19;20528;-60
2023/07/20 05:42:51;;;;;;;11.85;3.00;;;;;;;17.14;71.59;101423.94;7393329;19;20039;-63
2023/07/20 05:45:20;;;;;;;8.93;3.80;;;;;;;17.19;71.59;101424.34;7392445;19;20022;-60
2023/07/20 05:47:47;;;;;;;9.27;3.70;;;;;;;17.21;71.66;101419.72;7392822;19;20018;-60
2023/07/20 05:50:14;;;;;;;8.77;3.25;;;;;;;17.21;71.46;101415.19;7395162;19;20015;-60
2023/07/20 05:52:42;;;;;;;7.35;3.10;;;;;;;17.25;71.07;101427.31;7394447;19;20023;-60
2023/07/20 05:55:09;;;;;;;6.30;2.33;;;;;;;17.25;70.29;101421.97;7393643;19;20015;-60
2023/07/20 05:57:39;;;;;;;8.20;2.50;;;;;;;17.30;70.16;101434.91;7390929;19;20011;-60
2023/07/20 06:00:07;;;;;;;4.78;2.00;;;;;;;17.22;69.61;101430.25;7392796;19;20015;-59
2023/07/20 06:02:34;;;;;;;3.70;1.90;;;;;;;17.19;69.72;101435.06;7393805;19;20022;-60
2023/07/20 06:05:02;;;;;;;3.65;1.88;;;;;;;17.25;68.83;101437.19;7392103;19;20087;-60
2023/07/20 06:07:29;;;;;;;6.32;2.05;;;;;;;17.32;68.71;101438.28;7390710;19;20015;-60
2023/07/20 06:09:58;;;;;;;7.35;2.00;;;;;;;17.36;68.17;101434.38;7393294;19;20035;-60
2023/07/20 06:12:25;;;;;;;6.72;1.73;;;;;;;17.34;67.92;101435.50;7394532;19;20149;-60
2023/07/20 06:14:52;;;;;;;6.05;1.45;;;;;;;17.38;67.88;101439.56;7392992;19;20018;-60
2023/07/20 06:17:20;;;;;;;2.95;1.27;;;;;;;17.37;67.52;101435.22;7392601;19;20384;-59
2023/07/20 06:19:48;;;;;;;4.22;1.38;;;;;;;17.48;67.32;101440.44;7394208;19;20034;-60
2023/07/20 06:22:15;;;;;;;2.47;1.20;;;;;;;17.48;67.18;101438.59;7393724;19;20425;-60
2023/07/20 06:24:43;;;;;;;3.42;1.20;;;;;;;17.48;67.20;101438.59;7391920;19;20349;-59
2023/07/20 06:27:10;;;;;;;1.85;1.00;;;;;;;17.40;67.35;101443.81;7391920;19;20025;-60
2023/07/20 06:29:38;;;;;;;3.85;1.15;;;;;;;17.44;67.25;101447.06;7393305;19;20022;-59
2023/07/20 06:32:06;;;;;;;2.85;0.90;;;;;;;17.53;67.21;101441.69;7393188;19;20015;-60
2023/07/20 06:34:36;;;;;;;1.88;0.90;;;;;;;17.64;66.92;101450.56;7396006;19;20022;-60
2023/07/20 06:37:04;;;;;;;3.45;1.30;;;;;;;17.61;67.17;101450.84;7389607;19;20490;-61
2023/07/20 06:39:31;;;;;;;5.05;1.13;;;;;;;17.54;67.00;101447.88;7392604;19;20495;-63
2023/07/20 06:42:02;;;;;;;3.33;1.02;;;;;;;17.53;66.63;101448.88;7392667;19;20010;-60
2023/07/20 06:44:29;;;;;;;1.70;0.85;;;;;;;17.47;66.74;101447.59;7391710;19;20018;-60
2023/07/20 06:46:56;;;;;;;2.55;0.90;;;;;;;17.50;66.61;101449.16;7389882;19;20018;-60
2023/07/20 06:49:27;;;;;;;5.70;0.90;;;;;;;17.65;65.76;101447.75;7391026;19;20450;-59
2023/07/20 06:51:55;;;;;;;4.30;1.10;;;;;;;17.66;65.86;101451.25;7392357;19;20106;-60
2023/07/20 06:54:22;;;;;;;6.93;1.30;;;;;;;17.70;65.88;101456.19;7392558;19;20014;-62
2023/07/20 06:56:51;;;;;;;2.92;1.00;;;;;;;17.68;65.08;101458.19;7390900;19;20026;-62
2023/07/20 06:59:21;;;;;;;2.83;1.00;;;;;;;17.71;65.16;101444.50;7391235;19;20043;-61
2023/07/20 07:01:48;;;;;;;3.13;0.80;;;;;;;17.84;64.97;101448.75;7392443;19;20039;-60
2023/07/20 07:04:15;;;;;;;3.88;1.20;;;;;;;17.85;64.37;101450.44;7391677;19;20021;-61
2023/07/20 07:06:44;;;;;;;1.92;0.85;;;;;;;17.80;63.64;101442.81;7389356;19;20062;-61
2023/07/20 07:09:11;;;;;;;3.65;0.93;;;;;;;17.86;63.76;101446.75;7391929;19;20035;-64
2023/07/20 07:11:38;;;;;;;3.08;0.90;;;;;;;17.91;63.47;101455.22;7392664;19;20036;-65
2023/07/20 07:14:06;;;;;;;5.40;1.48;;;;;;;17.95;62.54;101448.59;7392220;19;20015;-63
2023/07/20 07:16:34;;;;;;;2.60;0.85;;;;;;;17.88;62.60;101452.81;7390692;19;20022;-63
2023/07/20 07:19:07;;;;;;;5.70;1.00;;;;;;;17.92;62.11;101451.53;7390141;19;20015;-64
2023/07/20 07:21:34;;;;;;;6.70;1.23;;;;;;;17.97;61.86;101460.00;7392204;19;20011;-63
2023/07/20 07:24:01;;;;;;;1.50;0.82;;;;;;;18.12;61.23;101455.88;7390884;19;20044;-63
2023/07/20 07:26:29;;;;;;;7.90;0.90;;;;;;;18.24;60.82;101456.56;7389614;19;20022;-60
2023/07/20 07:28:56;;;;;;;4.72;1.10;;;;;;;18.20;60.75;101460.50;7391541;19;20043;-60
2023/07/20 07:31:25;;;;;;;4.63;1.20;;;;;;;18.23;61.06;101461.06;7389786;19;20022;-60
2023/07/20 07:33:52;;;;;;;3.95;1.20;;;;;;;18.35;60.08;101467.09;7393986;19;20018;-59
2023/07/20 07:36:20;;;;;;;4.05;1.10;;;;;;;18.24;60.29;101468.13;7389503;19;20022;-61
2023/07/20 07:38:47;;;;;;;6.63;1.00;;;;;;;18.19;60.36;101465.03;7391342;19;20014;-59
2023/07/20 07:41:35;;;;;;;4.47;1.20;;;;;;;18.14;60.12;101470.00;7390975;19;20018;-57
2023/07/20 07:44:02;;;;;;;6.07;1.35;;;;;;;18.13;59.07;101465.63;7389851;19;20010;-59
2023/07/20 07:46:29;;;;;;;5.30;1.15;;;;;;;18.31;58.30;101460.34;7391058;19;20047;-59
2023/07/20 07:48:57;;;;;;;2.38;1.13;;;;;;;18.41;58.38;101471.88;7390826;19;20023;-62
2023/07/20 07:51:24;;;;;;;3.83;0.80;;;;;;;18.50;58.06;101464.78;7388662;19;20022;-62
2023/07/20 07:53:52;;;;;;;6.35;1.10;;;;;;;18.50;58.11;101470.16;7389037;19;20019;-62
2023/07/20 07:56:22;;;;;;;2.55;0.95;;;;;;;18.54;57.46;101482.28;7389047;19;20059;-61
2023/07/20 07:58:53;;;;;;;5.45;1.13;;;;;;;18.45;57.37;101470.59;7391395;19;20022;-61
2023/07/20 08:01:22;;;;;;;6.18;1.20;;;;;;;18.52;57.21;101474.38;7388694;19;20086;-62
2023/07/20 08:03:50;;;;;;;5.50;1.10;;;;;;;18.62;57.22;101471.69;7389260;19;20040;-62
2023/07/20 08:06:18;;;;;;;4.00;1.42;;;;;;;18.70;56.71;101476.31;7385753;19;20027;-62
2023/07/20 08:08:45;;;;;;;4.03;1.30;;;;;;;18.72;56.50;101477.84;7389901;19;20036;-62
2023/07/20 08:11:12;;;;;;;3.05;1.00;;;;;;;18.72;56.59;101474.31;7388262;19;20023;-63
2023/07/20 08:13:41;;;;;;;7.28;1.60;;;;;;;18.70;56.91;101479.84;7389247;19;20429;-62
2023/07/20 08:16:09;;;;;;;4.10;1.50;;;;;;;18.71;56.60;101475.34;7386656;19;20468;-62
2023/07/20 08:18:36;;;;;;;4.80;1.38;;;;;;;18.67;56.37;101482.78;7389194;19;20020;-63
2023/07/20 08:21:04;;;;;;;3.88;1.48;;;;;;;18.66;56.37;101473.06;7392657;19;20592;-63
2023/07/20 08:23:31;;;;;;;6.07;1.75;;;;;;;18.66;56.05;101490.97;7396849;19;20047;-63
2023/07/20 08:25:58;;;;;;;5.57;1.52;;;;;;;18.62;55.77;101474.34;7393956;19;20018;-62
2023/07/20 08:28:26;;;;;;;5.75;1.70;;;;;;;18.66;55.75;101478.44;7395428;19;20010;-62
2023/07/20 08:30:53;;;;;;;4.88;1.30;;;;;;;18.69;55.63;101478.13;7394680;19;20373;-62
2023/07/20 08:33:21;;;;;;;3.80;1.40;;;;;;;18.75;55.87;101479.41;7396872;19;20480;-61
2023/07/20 08:35:48;;;;;;;6.78;1.45;;;;;;;18.90;54.89;101482.44;7395222;19;20018;-62
2023/07/20 08:38:16;;;;;;;4.95;1.35;;;;;;;18.84;54.45;101477.66;7392433;19;20333;-62
2023/07/20 08:40:46;;;;;;;3.72;1.70;;;;;;;18.73;55.04;101474.19;7396498;19;20098;-62
2023/07/20 08:43:18;;;;;;;5.18;1.30;;;;;;;18.83;55.16;101490.25;7396785;19;20565;-62
2023/07/20 08:45:47;;;;;;;5.50;1.38;;;;;;;18.87;54.57;101493.47;7393893;19;20452;-62
2023/07/20 08:48:15;;;;;;;3.85;1.50;;;;;;;18.88;54.41;101493.31;7394555;19;20037;-62
2023/07/20 08:50:43;;;;;;;5.65;1.27;;;;;;;18.93;53.57;101487.53;7396125;19;20039;-61
2023/07/20 08:53:13;;;;;;;4.20;1.77;;;;;;;19.00;53.26;101493.94;7395942;19;20024;-62
2023/07/20 08:55:44;;;;;;;3.35;1.40;;;;;;;19.19;53.00;101496.56;7395296;19;20023;-61
2023/07/20 08:58:12;;;;;;;3.10;1.30;;;;;;;19.17;52.36;101497.69;7392917;19;20455;-63
2023/07/20 09:00:41;;;;;;;8.32;3.08;;;;;;;19.18;52.06;101494.84;7395882;19;20047;-63
2023/07/20 09:03:14;;;;;;;11.07;3.92;;;;;;;19.13;52.05;101496.31;7395351;19;20014;-63
2023/07/20 09:05:41;;;;;;;6.18;2.47;;;;;;;19.18;52.04;101494.84;7392250;19;20022;-62
2023/07/20 09:08:09;;;;;;;9.15;2.08;;;;;;;19.19;52.16;101498.38;7393305;19;20014;-62
2023/07/20 09:10:36;;;;;;;7.63;2.10;;;;;;;19.19;52.43;101501.91;7396190;19;20035;-62
2023/07/20 09:13:03;;;;;;;5.63;1.38;;;;;;;19.29;52.17;101491.09;7395811;19;20026;-62
2023/07/20 09:15:30;;;;;;;3.97;1.50;;;;;;;19.30;51.67;101497.31;7396722;19;20492;-62
2023/07/20 09:18:01;;;;;;;7.47;1.65;;;;;;;19.47;51.37;101499.19;7396538;19;21160;-62
2023/07/20 09:20:32;;;;;;;5.43;2.05;;;;;;;19.56;51.83;101498.25;7398433;19;20014;-61
2023/07/20 09:22:59;;;;;;;6.90;1.70;;;;;;;19.56;51.83;101492.88;7396970;19;20367;-61
2023/07/20 09:25:28;;;;;;;4.28;1.35;;;;;;;19.54;52.31;101494.88;7394945;19;20039;-62
2023/07/20 09:28:02;;;;;;;6.75;1.40;;;;;;;19.56;52.22;101486.66;7394080;19;20123;-62
2023/07/20 09:30:31;;;;;;;4.82;1.60;;;;;;;19.57;52.43;101497.25;7394810;19;20065;-61
2023/07/20 09:33:00;;;;;;;4.43;1.30;;;;;;;19.47;52.38;101497.34;7392692;19;20031;-61
2023/07/20 09:35:28;;;;;;;2.78;1.40;;;;;;;19.42;51.31;101488.03;7394718;19;20022;-61
2023/07/20 09:38:09;;;;;;;6.90;1.95;;;;;;;19.56;50.73;101487.50;7392065;19;20486;-61
2023/07/20 09:40:40;;;;;;;7.00;2.42;;;;;;;19.89;49.68;101482.44;7393195;19;20010;-61
2023/07/20 09:43:10;;;;;;;8.73;2.13;;;;;;;20.16;49.66;101492.22;7394449;19;20024;-61
2023/07/20 09:45:42;;;;;;;5.07;1.70;;;;;;;20.32;49.16;101483.41;7393074;19;20094;-61
2023/07/20 09:48:14;;;;;;;4.13;1.40;;;;;;;20.29;49.78;101491.81;7391984;19;20010;-62
2023/07/20 09:50:51;;;;;;;5.35;1.67;;;;;;;20.05;50.35;101490.63;7394458;19;20041;-62
2023/07/20 09:53:20;;;;;;;3.45;1.48;;;;;;;20.08;51.25;101497.56;7393572;19;20018;-62
2023/07/20 09:55:48;;;;;;;6.28;1.52;;;;;;;20.28;50.79;101490.13;7393742;19;20085;-62
2023/07/20 09:58:16;;;;;;;9.43;2.22;;;;;;;20.30;49.97;101480.03;7391540;19;20062;-62
2023/07/20 10:00:46;;;;;;;5.70;1.60;;;;;;;20.11;50.21;101498.09;7394606;19;20045;-62
2023/07/20 10:03:22;;;;;;;7.18;1.80;;;;;;;19.90;51.24;101498.41;7392480;19;20010;-62
2023/07/20 10:06:08;;;;;;;5.65;2.45;;;;;;;19.74;54.93;101508.19;7392521;19;20370;-62
2023/07/20 10:08:40;;;;;;;5.28;1.42;;;;;;;19.39;55.21;101504.47;7393705;19;20471;-61
2023/07/20 10:11:14;;;;;;;3.97;1.60;;;;;;;19.18;55.98;101502.91;7393597;19;20018;-62
2023/07/20 10:13:43;;;;;;;6.20;1.50;;;;;;;19.20;55.93;101503.59;7393647;19;20015;-61
2023/07/20 10:16:21;;;;;;;4.45;1.58;;;;;;;19.29;56.06;101507.22;7392621;19;20011;-61
2023/07/20 10:19:11;;;;;;;4.50;1.60;;;;;;;19.34;53.80;101504.06;7393327;19;20019;-61
2023/07/20 10:21:47;;;;;;;6.70;1.70;;;;;;;19.36;54.15;101499.41;7393355;19;20011;-61
2023/07/20 10:24:22;;;;;;;8.13;1.90;;;;;;;19.35;54.41;101508.47;7391725;19;20026;-62
2023/07/20 10:26:50;;;;;;;6.38;2.10;;;;;;;19.39;54.70;101491.88;7390646;19;20046;-61
2023/07/20 10:29:19;;;;;;;5.30;1.60;;;;;;;19.38;55.63;101511.66;7393286;19;20479;-61
2023/07/20 10:31:46;;;;;;;6.78;1.98;;;;;;;19.54;55.77;101507.47;7397648;19;20018;-60
2023/07/20 10:34:14;;;;;;;4.43;1.52;;;;;;;19.41;56.04;101502.47;7396136;19;20035;-62
2023/07/20 10:36:51;;;;;;;3.38;1.40;;;;;;;19.33;56.32;101502.38;7390937;19;20015;-63
2023/07/20 10:39:27;;;;;;;4.57;1.60;;;;;;;19.46;56.35;101495.66;7392109;19;20495;-63
2023/07/20 10:42:08;;;;;;;5.55;1.58;;;;;;;19.69;56.32;101490.69;7392532;19;20029;-61
2023/07/20 10:44:39;;;;;;;3.95;1.50;;;;;;;20.01;55.29;101491.94;7391179;19;20074;-61
2023/07/20 10:47:11;;;;;;;3.92;1.30;;;;;;;20.15;54.53;101494.09;7390771;19;20039;-63
2023/07/20 10:50:00;;;;;;;3.80;1.42;;;;;;;20.32;53.27;101489.63;7392147;19;20495;-63
2023/07/20 10:52:38;;;;;;;4.53;1.38;;;;;;;20.30;52.53;101483.59;7393093;19;20018;-60
2023/07/20 10:55:16;;;;;;;4.45;1.40;;;;;;;20.46;52.44;101482.84;7391325;19;20047;-62
2023/07/20 10:57:43;;;;;;;3.28;1.20;;;;;;;20.47;52.57;101487.22;7391044;19;20053;-62
2023/07/20 11:00:14;;;;;;;5.10;1.77;;;;;;;20.51;52.40;101485.06;7391143;19;20057;-63
2023/07/20 11:02:59;;;;;;;5.57;1.60;;;;;;;20.41;52.70;101483.31;7390554;19;20047;-63
2023/07/20 11:05:38;;;;;;;6.68;1.65;;;;;;;20.24;53.07;101496.81;7390199;19;20507;-62
2023/07/20 11:08:10;;;;;;;4.88;1.55;;;;;;;19.99;52.93;101493.09;7390293;19;20095;-63
2023/07/20 11:10:38;;;;;;;5.10;1.60;;;;;;;19.85;53.73;101499.91;7391501;19;20025;-62
2023/07/20 11:13:20;;;;;;;6.25;1.40;;;;;;;19.76;54.09;101495.44;7391760;19;20040;-61
2023/07/20 11:15:56;;;;;;;4.63;1.52;;;;;;;19.81;53.84;101495.84;7389020;19;20019;-62
2023/07/20 11:18:28;;;;;;;4.32;1.30;;;;;;;20.00;53.39;101498.34;7391092;19;20051;-62
2023/07/20 11:20:55;;;;;;;4.35;1.42;;;;;;;20.12;53.10;101497.06;7391399;19;20015;-63
2023/07/20 11:23:23;;;;;;;5.03;1.50;;;;;;;20.49;53.10;101484.34;7389078;19;20050;-63
2023/07/20 11:25:50;;;;;;;3.72;1.42;;;;;;;20.74;51.66;101478.13;7387688;19;20029;-63
2023/07/20 11:28:17;;;;;;;6.25;1.70;;;;;;;20.95;51.19;101475.00;7388507;19;20470;-62
2023/07/20 11:30:45;;;;;;;4.47;1.65;;;;;;;21.27;50.64;101476.94;7390776;19;20019;-61
2023/07/20 11:33:12;;;;;;;4.05;1.80;;;;;;;21.44;50.90;101480.53;7389730;19;20086;-63